sensor_id;sensor_type;location;lat;lon;timestamp;pressure;altitude;pressure_sealevel;temperature;humidity
3812;BME280;1921;49.368;11.068;2023-09-07T00:00:15;98115.03;;;15.26;98.26
3812;BME280;1921;49.368;11.068;2023-09-07T00:02:41;98094.50;;;15.08;97.93
3812;BME280;1921;49.368;11.068;2023-09-07T00:05:08;98127.19;;;15.33;98.57
3812;BME280;1921;49.368;11.068;2023-09-07T00:07:34;98114.59;;;15.16;98.73
3812;BME280;1921;49.368;11.068;2023-09-07T00:10:00;98094.28;;;15.03;98.74
3812;BME280;1921;49.368;11.068;2023-09-07T00:12:27;98093.88;;;14.99;98.88
3812;BME280;1921;49.368;11.068;2023-09-07T00:14:54;98111.28;;;15.07;99.94
3812;BME280;1921;49.368;11.068;2023-09-07T00:17:21;98111.97;;;14.88;100.00
3812;BME280;1921;49.368;11.068;2023-09-07T00:19:47;98127.94;;;14.86;100.00
3812;BME280;1921;49.368;11.068;2023-09-07T00:22:15;98096.28;;;14.66;100.00
3812;BME280;1921;49.368;11.068;2023-09-07T00:24:40;98090.16;;;14.59;100.00
3812;BME280;1921;49.368;11.068;2023-09-07T00:27:06;98099.28;;;14.63;100.00
3812;BME280;1921;49.368;11.068;2023-09-07T00:29:38;98136.22;;;14.90;100.00
3812;BME280;1921;49.368;11.068;2023-09-07T00:32:05;98136.97;;;14.84;100.00
3812;BME280;1921;49.368;11.068;2023-09-07T00:34:30;98120.81;;;14.80;100.00
3812;BME280;1921;49.368;11.068;2023-09-07T00:36:57;98069.03;;;14.46;100.00
3812;BME280;1921;49.368;11.068;2023-09-07T00:39:22;98156.66;;;14.94;100.00
3812;BME280;1921;49.368;11.068;2023-09-07T00:41:48;98069.19;;;14.38;100.00
3812;BME280;1921;49.368;11.068;2023-09-07T00:44:14;98092.94;;;14.51;100.00
3812;BME280;1921;49.368;11.068;2023-09-07T00:46:42;98095.19;;;14.54;100.00
3812;BME280;1921;49.368;11.068;2023-09-07T00:49:13;98153.75;;;14.82;100.00
3812;BME280;1921;49.368;11.068;2023-09-07T00:51:39;98130.78;;;14.63;100.00
3812;BME280;1921;49.368;11.068;2023-09-07T00:54:05;98118.81;;;14.54;100.00
3812;BME280;1921;49.368;11.068;2023-09-07T00:56:32;98117.34;;;14.51;100.00
3812;BME280;1921;49.368;11.068;2023-09-07T00:58:58;98121.84;;;14.58;100.00
3812;BME280;1921;49.368;11.068;2023-09-07T01:01:26;98093.78;;;14.37;100.00
3812;BME280;1921;49.368;11.068;2023-09-07T01:03:52;98102.47;;;14.37;100.00
3812;BME280;1921;49.368;11.068;2023-09-07T01:06:22;98090.78;;;14.40;100.00
3812;BME280;1921;49.368;11.068;2023-09-07T01:08:55;98104.78;;;14.47;100.00
3812;BME280;1921;49.368;11.068;2023-09-07T01:11:23;98089.97;;;14.39;100.00
3812;BME280;1921;49.368;11.068;2023-09-07T01:13:50;98104.44;;;14.50;100.00
3812;BME280;1921;49.368;11.068;2023-09-07T01:16:20;98075.38;;;14.30;100.00
3812;BME280;1921;49.368;11.068;2023-09-07T01:18:46;98119.16;;;14.51;100.00
3812;BME280;1921;49.368;11.068;2023-09-07T01:21:13;98067.81;;;14.20;100.00
3812;BME280;1921;49.368;11.068;2023-09-07T01:23:41;98091.16;;;14.37;100.00
3812;BME280;1921;49.368;11.068;2023-09-07T01:26:09;98074.25;;;14.18;100.00
3812;BME280;1921;49.368;11.068;2023-09-07T01:28:35;98114.41;;;14.40;100.00
3812;BME280;1921;49.368;11.068;2023-09-07T01:31:02;98063.88;;;14.10;100.00
3812;BME280;1921;49.368;11.068;2023-09-07T01:33:28;98088.38;;;14.17;100.00
3812;BME280;1921;49.368;11.068;2023-09-07T01:35:54;97957.28;;;13.31;100.00
3812;BME280;1921;49.368;11.068;2023-09-07T01:38:20;98091.81;;;14.17;100.00
3812;BME280;1921;49.368;11.068;2023-09-07T01:40:46;98104.53;;;14.20;100.00
3812;BME280;1921;49.368;11.068;2023-09-07T01:43:12;98087.69;;;14.08;100.00
3812;BME280;1921;49.368;11.068;2023-09-07T01:45:38;98110.78;;;14.19;100.00
3812;BME280;1921;49.368;11.068;2023-09-07T01:48:11;98038.66;;;13.66;100.00
3812;BME280;1921;49.368;11.068;2023-09-07T01:50:37;98097.69;;;13.98;100.00
3812;BME280;1921;49.368;11.068;2023-09-07T01:53:03;98050.59;;;13.68;100.00
3812;BME280;1921;49.368;11.068;2023-09-07T01:55:33;98143.88;;;14.20;100.00
3812;BME280;1921;49.368;11.068;2023-09-07T01:57:59;98048.66;;;13.56;100.00
3812;BME280;1921;49.368;11.068;2023-09-07T02:00:25;98101.00;;;13.85;100.00
3812;BME280;1921;49.368;11.068;2023-09-07T02:02:50;98092.06;;;13.80;100.00
3812;BME280;1921;49.368;11.068;2023-09-07T02:05:16;98111.28;;;13.87;100.00
3812;BME280;1921;49.368;11.068;2023-09-07T02:07:43;98071.16;;;13.50;100.00
3812;BME280;1921;49.368;11.068;2023-09-07T02:10:09;98096.16;;;13.67;100.00
3812;BME280;1921;49.368;11.068;2023-09-07T02:12:35;98063.22;;;13.43;100.00
3812;BME280;1921;49.368;11.068;2023-09-07T02:15:03;98072.56;;;13.53;100.00
3812;BME280;1921;49.368;11.068;2023-09-07T02:17:29;98085.41;;;13.62;100.00
3812;BME280;1921;49.368;11.068;2023-09-07T02:19:56;98099.84;;;13.73;100.00
3812;BME280;1921;49.368;11.068;2023-09-07T02:22:22;98129.38;;;13.82;100.00
3812;BME280;1921;49.368;11.068;2023-09-07T02:24:47;98094.63;;;13.58;100.00
3812;BME280;1921;49.368;11.068;2023-09-07T02:27:13;98136.34;;;13.74;100.00
3812;BME280;1921;49.368;11.068;2023-09-07T02:29:39;98082.66;;;13.34;100.00
3812;BME280;1921;49.368;11.068;2023-09-07T02:32:05;98011.78;;;12.91;100.00
3812;BME280;1921;49.368;11.068;2023-09-07T02:34:31;98118.84;;;13.60;100.00
3812;BME280;1921;49.368;11.068;2023-09-07T02:36:57;98003.94;;;12.77;100.00
3812;BME280;1921;49.368;11.068;2023-09-07T02:39:23;98063.84;;;13.16;100.00
3812;BME280;1921;49.368;11.068;2023-09-07T02:41:52;98093.31;;;13.18;100.00
3812;BME280;1921;49.368;11.068;2023-09-07T02:44:18;98029.66;;;12.73;100.00
3812;BME280;1921;49.368;11.068;2023-09-07T02:46:44;98112.16;;;13.13;100.00
3812;BME280;1921;49.368;11.068;2023-09-07T02:49:10;98080.03;;;12.90;100.00
3812;BME280;1921;49.368;11.068;2023-09-07T02:51:35;98057.09;;;12.62;100.00
3812;BME280;1921;49.368;11.068;2023-09-07T02:54:02;98085.78;;;12.71;100.00
3812;BME280;1921;49.368;11.068;2023-09-07T02:56:29;98076.22;;;12.78;100.00
3812;BME280;1921;49.368;11.068;2023-09-07T02:58:55;98090.41;;;12.83;100.00
3812;BME280;1921;49.368;11.068;2023-09-07T03:01:21;98089.59;;;12.83;100.00
3812;BME280;1921;49.368;11.068;2023-09-07T03:03:47;98103.03;;;12.94;100.00
3812;BME280;1921;49.368;11.068;2023-09-07T03:06:15;98112.34;;;12.97;100.00
3812;BME280;1921;49.368;11.068;2023-09-07T03:08:44;98094.09;;;12.89;100.00
3812;BME280;1921;49.368;11.068;2023-09-07T03:11:10;98101.25;;;12.95;100.00
3812;BME280;1921;49.368;11.068;2023-09-07T03:13:35;98089.88;;;12.88;100.00
3812;BME280;1921;49.368;11.068;2023-09-07T03:16:03;98131.50;;;13.12;100.00
3812;BME280;1921;49.368;11.068;2023-09-07T03:18:30;98131.03;;;13.09;100.00
3812;BME280;1921;49.368;11.068;2023-09-07T03:20:59;98123.00;;;12.96;100.00
3812;BME280;1921;49.368;11.068;2023-09-07T03:23:26;98116.31;;;12.93;100.00
3812;BME280;1921;49.368;11.068;2023-09-07T03:25:52;98081.72;;;12.68;100.00
3812;BME280;1921;49.368;11.068;2023-09-07T03:28:18;98123.09;;;12.87;100.00
3812;BME280;1921;49.368;11.068;2023-09-07T03:30:43;98108.53;;;12.70;100.00
3812;BME280;1921;49.368;11.068;2023-09-07T03:33:09;98107.19;;;12.74;100.00
3812;BME280;1921;49.368;11.068;2023-09-07T03:35:35;98050.09;;;12.40;100.00
3812;BME280;1921;49.368;11.068;2023-09-07T03:38:01;98112.25;;;12.76;100.00
3812;BME280;1921;49.368;11.068;2023-09-07T03:40:26;98094.34;;;12.64;100.00
3812;BME280;1921;49.368;11.068;2023-09-07T03:42:52;98087.84;;;12.60;100.00
3812;BME280;1921;49.368;11.068;2023-09-07T03:45:18;98080.88;;;12.53;100.00
3812;BME280;1921;49.368;11.068;2023-09-07T03:47:43;98101.38;;;12.64;100.00
3812;BME280;1921;49.368;11.068;2023-09-07T03:50:10;98045.03;;;12.24;100.00
3812;BME280;1921;49.368;11.068;2023-09-07T03:52:36;98093.78;;;12.54;100.00
3812;BME280;1921;49.368;11.068;2023-09-07T03:55:02;98079.06;;;12.38;100.00
3812;BME280;1921;49.368;11.068;2023-09-07T03:57:28;98100.66;;;12.55;100.00
3812;BME280;1921;49.368;11.068;2023-09-07T03:59:55;98094.16;;;12.51;100.00
3812;BME280;1921;49.368;11.068;2023-09-07T04:02:22;98104.78;;;12.50;100.00
3812;BME280;1921;49.368;11.068;2023-09-07T04:04:53;98086.53;;;12.42;100.00
3812;BME280;1921;49.368;11.068;2023-09-07T04:07:19;98141.38;;;12.73;100.00
3812;BME280;1921;49.368;11.068;2023-09-07T04:09:45;98107.56;;;12.48;100.00
3812;BME280;1921;49.368;11.068;2023-09-07T04:12:12;98080.22;;;12.36;100.00
3812;BME280;1921;49.368;11.068;2023-09-07T04:14:38;98066.22;;;12.29;100.00
3812;BME280;1921;49.368;11.068;2023-09-07T04:17:05;98120.22;;;12.59;100.00
3812;BME280;1921;49.368;11.068;2023-09-07T04:19:31;98131.09;;;12.71;100.00
3812;BME280;1921;49.368;11.068;2023-09-07T04:22:00;98095.03;;;12.44;100.00
3812;BME280;1921;49.368;11.068;2023-09-07T04:24:26;98083.00;;;12.34;100.00
3812;BME280;1921;49.368;11.068;2023-09-07T04:27:01;98128.72;;;12.61;100.00
3812;BME280;1921;49.368;11.068;2023-09-07T04:29:28;98095.28;;;12.34;100.00
3812;BME280;1921;49.368;11.068;2023-09-07T04:31:54;98115.03;;;12.36;100.00
3812;BME280;1921;49.368;11.068;2023-09-07T04:34:21;98122.41;;;12.33;100.00
3812;BME280;1921;49.368;11.068;2023-09-07T04:36:47;98116.91;;;12.28;100.00
3812;BME280;1921;49.368;11.068;2023-09-07T04:39:13;98070.41;;;11.92;100.00
3812;BME280;1921;49.368;11.068;2023-09-07T04:41:40;98145.03;;;12.26;100.00
3812;BME280;1921;49.368;11.068;2023-09-07T04:44:06;98106.69;;;11.95;100.00
3812;BME280;1921;49.368;11.068;2023-09-07T04:46:32;98109.81;;;11.91;100.00
3812;BME280;1921;49.368;11.068;2023-09-07T04:48:58;98102.13;;;11.89;100.00
3812;BME280;1921;49.368;11.068;2023-09-07T04:51:23;98111.97;;;11.87;100.00
3812;BME280;1921;49.368;11.068;2023-09-07T04:53:51;98108.34;;;11.88;100.00
3812;BME280;1921;49.368;11.068;2023-09-07T04:56:17;98114.69;;;11.94;100.00
3812;BME280;1921;49.368;11.068;2023-09-07T04:58:43;98154.78;;;12.32;100.00
3812;BME280;1921;49.368;11.068;2023-09-07T05:01:11;98149.91;;;12.52;100.00
3812;BME280;1921;49.368;11.068;2023-09-07T05:03:37;98117.91;;;12.64;100.00
3812;BME280;1921;49.368;11.068;2023-09-07T05:06:06;98106.19;;;12.75;100.00
3812;BME280;1921;49.368;11.068;2023-09-07T05:08:32;98138.53;;;13.12;100.00
3812;BME280;1921;49.368;11.068;2023-09-07T05:11:00;98123.00;;;13.10;100.00
3812;BME280;1921;49.368;11.068;2023-09-07T05:13:27;98113.72;;;13.23;100.00
3812;BME280;1921;49.368;11.068;2023-09-07T05:15:54;98102.47;;;13.58;100.00
3812;BME280;1921;49.368;11.068;2023-09-07T05:18:21;98089.97;;;13.96;100.00
3812;BME280;1921;49.368;11.068;2023-09-07T05:20:47;98108.06;;;14.49;100.00
3812;BME280;1921;49.368;11.068;2023-09-07T05:23:22;98130.34;;;15.16;100.00
3812;BME280;1921;49.368;11.068;2023-09-07T05:25:53;98164.47;;;15.85;100.00
3812;BME280;1921;49.368;11.068;2023-09-07T05:28:21;98101.34;;;15.85;100.00
3812;BME280;1921;49.368;11.068;2023-09-07T05:30:47;98154.47;;;16.41;98.91
3812;BME280;1921;49.368;11.068;2023-09-07T05:33:15;98127.75;;;16.45;89.83
3812;BME280;1921;49.368;11.068;2023-09-07T05:35:41;98125.09;;;16.58;84.75
3812;BME280;1921;49.368;11.068;2023-09-07T05:38:08;98122.88;;;16.68;84.64
3812;BME280;1921;49.368;11.068;2023-09-07T05:40:39;98134.66;;;16.79;84.64
3812;BME280;1921;49.368;11.068;2023-09-07T05:43:05;98153.50;;;16.76;81.74
3812;BME280;1921;49.368;11.068;2023-09-07T05:45:35;98185.75;;;16.84;83.41
3812;BME280;1921;49.368;11.068;2023-09-07T05:48:05;98161.16;;;16.64;84.05
3812;BME280;1921;49.368;11.068;2023-09-07T05:50:36;98113.75;;;16.31;82.15
3812;BME280;1921;49.368;11.068;2023-09-07T05:53:02;98153.47;;;16.42;82.16
3812;BME280;1921;49.368;11.068;2023-09-07T05:55:28;98191.16;;;16.69;83.62
3812;BME280;1921;49.368;11.068;2023-09-07T05:57:55;98177.38;;;16.67;83.39
3812;BME280;1921;49.368;11.068;2023-09-07T06:00:21;98136.88;;;16.49;84.39
3812;BME280;1921;49.368;11.068;2023-09-07T06:02:47;98047.31;;;15.96;85.02
3812;BME280;1921;49.368;11.068;2023-09-07T06:05:13;98125.53;;;16.61;86.34
3812;BME280;1921;49.368;11.068;2023-09-07T06:07:39;98159.97;;;16.93;85.68
3812;BME280;1921;49.368;11.068;2023-09-07T06:10:05;98158.34;;;17.05;85.24
3812;BME280;1921;49.368;11.068;2023-09-07T06:12:32;98176.56;;;17.33;86.76
3812;BME280;1921;49.368;11.068;2023-09-07T06:14:59;98160.28;;;17.49;86.12
3812;BME280;1921;49.368;11.068;2023-09-07T06:17:24;98153.94;;;17.64;85.04
3812;BME280;1921;49.368;11.068;2023-09-07T06:19:50;98173.88;;;18.05;87.78
3812;BME280;1921;49.368;11.068;2023-09-07T06:22:16;98184.47;;;18.36;87.42
3812;BME280;1921;49.368;11.068;2023-09-07T06:24:42;98154.97;;;18.46;87.85
3812;BME280;1921;49.368;11.068;2023-09-07T06:27:07;98109.31;;;18.39;87.42
3812;BME280;1921;49.368;11.068;2023-09-07T06:29:33;98183.50;;;19.12;86.10
3812;BME280;1921;49.368;11.068;2023-09-07T06:31:59;98185.97;;;19.14;79.58
3812;BME280;1921;49.368;11.068;2023-09-07T06:34:24;98160.16;;;19.09;80.69
3812;BME280;1921;49.368;11.068;2023-09-07T06:36:50;98118.47;;;18.86;80.57
3812;BME280;1921;49.368;11.068;2023-09-07T06:39:16;98124.44;;;19.00;81.21
3812;BME280;1921;49.368;11.068;2023-09-07T06:41:43;98148.94;;;19.14;77.97
3812;BME280;1921;49.368;11.068;2023-09-07T06:44:09;98131.66;;;18.68;79.11
3812;BME280;1921;49.368;11.068;2023-09-07T06:46:34;98166.94;;;19.23;82.13
3812;BME280;1921;49.368;11.068;2023-09-07T06:49:00;98144.44;;;18.96;80.28
3812;BME280;1921;49.368;11.068;2023-09-07T06:51:26;98151.78;;;19.30;78.48
3812;BME280;1921;49.368;11.068;2023-09-07T06:53:52;98136.16;;;19.47;78.13
3812;BME280;1921;49.368;11.068;2023-09-07T06:56:17;98136.47;;;19.76;75.19
3812;BME280;1921;49.368;11.068;2023-09-07T06:58:43;98137.16;;;20.01;74.90
3812;BME280;1921;49.368;11.068;2023-09-07T07:01:09;98128.44;;;20.24;73.62
3812;BME280;1921;49.368;11.068;2023-09-07T07:03:35;98152.47;;;20.41;70.77
3812;BME280;1921;49.368;11.068;2023-09-07T07:06:00;98176.50;;;20.58;70.63
3812;BME280;1921;49.368;11.068;2023-09-07T07:08:26;98154.72;;;20.67;71.07
3812;BME280;1921;49.368;11.068;2023-09-07T07:10:52;98177.81;;;21.02;67.33
3812;BME280;1921;49.368;11.068;2023-09-07T07:13:18;98191.00;;;21.44;66.84
3812;BME280;1921;49.368;11.068;2023-09-07T07:15:45;98162.59;;;21.56;66.62
3812;BME280;1921;49.368;11.068;2023-09-07T07:18:10;98132.19;;;21.75;64.74
3812;BME280;1921;49.368;11.068;2023-09-07T07:20:42;98173.97;;;22.09;64.06
3812;BME280;1921;49.368;11.068;2023-09-07T07:23:10;98167.13;;;22.24;62.73
3812;BME280;1921;49.368;11.068;2023-09-07T07:25:36;98140.88;;;22.28;63.14
3812;BME280;1921;49.368;11.068;2023-09-07T07:28:06;98163.94;;;22.73;63.75
3812;BME280;1921;49.368;11.068;2023-09-07T07:30:36;98187.66;;;23.25;61.02
3812;BME280;1921;49.368;11.068;2023-09-07T07:33:03;98178.88;;;23.46;59.17
3812;BME280;1921;49.368;11.068;2023-09-07T07:35:31;98187.03;;;23.78;59.34
3812;BME280;1921;49.368;11.068;2023-09-07T07:37:56;98136.41;;;23.73;58.42
3812;BME280;1921;49.368;11.068;2023-09-07T07:40:22;98152.59;;;23.94;57.61
3812;BME280;1921;49.368;11.068;2023-09-07T07:42:48;98156.00;;;24.16;56.56
3812;BME280;1921;49.368;11.068;2023-09-07T07:45:14;98142.81;;;23.99;58.01
3812;BME280;1921;49.368;11.068;2023-09-07T07:47:41;98129.22;;;24.01;57.47
3812;BME280;1921;49.368;11.068;2023-09-07T07:50:07;98123.47;;;24.36;55.89
3812;BME280;1921;49.368;11.068;2023-09-07T07:52:33;98155.56;;;24.83;54.85
3812;BME280;1921;49.368;11.068;2023-09-07T07:54:59;98155.44;;;25.00;53.34
3812;BME280;1921;49.368;11.068;2023-09-07T07:57:25;98139.53;;;25.15;52.59
3812;BME280;1921;49.368;11.068;2023-09-07T07:59:50;98119.34;;;25.40;51.35
3812;BME280;1921;49.368;11.068;2023-09-07T08:02:16;98137.22;;;26.02;50.99
3812;BME280;1921;49.368;11.068;2023-09-07T08:04:42;98120.19;;;26.28;48.86
3812;BME280;1921;49.368;11.068;2023-09-07T08:07:08;98148.84;;;26.74;48.88
3812;BME280;1921;49.368;11.068;2023-09-07T08:09:34;98160.56;;;27.24;46.59
3812;BME280;1921;49.368;11.068;2023-09-07T08:12:01;98164.19;;;27.63;45.69
3812;BME280;1921;49.368;11.068;2023-09-07T08:14:30;98151.75;;;27.18;46.22
3812;BME280;1921;49.368;11.068;2023-09-07T08:16:57;98117.75;;;26.32;47.99
3812;BME280;1921;49.368;11.068;2023-09-07T08:19:24;98130.59;;;27.12;46.28
3812;BME280;1921;49.368;11.068;2023-09-07T08:21:50;98153.25;;;28.14;43.53
3812;BME280;1921;49.368;11.068;2023-09-07T08:24:16;98150.19;;;28.36;43.40
3812;BME280;1921;49.368;11.068;2023-09-07T08:26:42;98134.88;;;28.37;42.08
3812;BME280;1921;49.368;11.068;2023-09-07T08:29:08;98152.59;;;29.30;40.17
3812;BME280;1921;49.368;11.068;2023-09-07T08:31:35;98127.69;;;28.32;41.22
3812;BME280;1921;49.368;11.068;2023-09-07T08:34:02;98148.34;;;29.53;38.79
3812;BME280;1921;49.368;11.068;2023-09-07T08:36:32;98118.97;;;29.09;39.61
3812;BME280;1921;49.368;11.068;2023-09-07T08:39:03;98156.91;;;28.34;40.95
3812;BME280;1921;49.368;11.068;2023-09-07T08:41:36;98113.50;;;26.87;42.84
3812;BME280;1921;49.368;11.068;2023-09-07T08:44:17;98093.81;;;27.97;41.08
3812;BME280;1921;49.368;11.068;2023-09-07T08:46:44;98116.63;;;27.35;42.56
3812;BME280;1921;49.368;11.068;2023-09-07T08:49:12;98159.94;;;25.94;44.72
3812;BME280;1921;49.368;11.068;2023-09-07T08:51:39;98141.56;;;25.45;46.27
3812;BME280;1921;49.368;11.068;2023-09-07T08:54:06;98171.44;;;26.00;46.59
3812;BME280;1921;49.368;11.068;2023-09-07T08:56:33;98109.72;;;24.86;47.21
3812;BME280;1921;49.368;11.068;2023-09-07T08:58:59;98144.63;;;25.17;47.63
3812;BME280;1921;49.368;11.068;2023-09-07T09:01:24;98132.56;;;25.09;45.80
3812;BME280;1921;49.368;11.068;2023-09-07T09:03:51;98124.69;;;25.35;45.94
3812;BME280;1921;49.368;11.068;2023-09-07T09:06:19;98117.16;;;25.27;45.78
3812;BME280;1921;49.368;11.068;2023-09-07T09:08:56;98144.50;;;26.17;43.03
3812;BME280;1921;49.368;11.068;2023-09-07T09:11:24;98117.97;;;27.97;39.59
3812;BME280;1921;49.368;11.068;2023-09-07T09:13:52;98158.94;;;29.15;36.69
3812;BME280;1921;49.368;11.068;2023-09-07T09:16:19;98126.03;;;29.00;37.33
3812;BME280;1921;49.368;11.068;2023-09-07T09:18:57;98113.44;;;27.93;39.12
3812;BME280;1921;49.368;11.068;2023-09-07T09:21:25;98134.56;;;27.99;38.73
3812;BME280;1921;49.368;11.068;2023-09-07T09:23:54;98118.31;;;26.29;42.04
3812;BME280;1921;49.368;11.068;2023-09-07T09:26:20;98115.03;;;27.29;40.80
3812;BME280;1921;49.368;11.068;2023-09-07T09:28:46;98110.25;;;28.64;37.54
3812;BME280;1921;49.368;11.068;2023-09-07T09:31:14;98119.25;;;27.45;40.45
3812;BME280;1921;49.368;11.068;2023-09-07T09:33:41;98100.09;;;26.97;42.11
3812;BME280;1921;49.368;11.068;2023-09-07T09:36:08;98115.91;;;28.91;38.08
3812;BME280;1921;49.368;11.068;2023-09-07T09:38:35;98114.88;;;28.58;36.09
3812;BME280;1921;49.368;11.068;2023-09-07T09:41:02;98155.31;;;28.33;38.44
3812;BME280;1921;49.368;11.068;2023-09-07T09:43:30;98105.19;;;27.84;37.83
3812;BME280;1921;49.368;11.068;2023-09-07T09:45:56;98119.53;;;28.03;38.47
3812;BME280;1921;49.368;11.068;2023-09-07T09:48:23;98117.09;;;27.47;38.24
3812;BME280;1921;49.368;11.068;2023-09-07T09:50:50;98105.34;;;27.38;39.18
3812;BME280;1921;49.368;11.068;2023-09-07T09:53:17;98137.84;;;27.91;37.94
3812;BME280;1921;49.368;11.068;2023-09-07T09:55:46;98085.66;;;27.63;37.00
3812;BME280;1921;49.368;11.068;2023-09-07T09:58:16;98091.81;;;29.10;34.32
3812;BME280;1921;49.368;11.068;2023-09-07T10:00:48;98127.19;;;30.92;32.41
3812;BME280;1921;49.368;11.068;2023-09-07T10:03:29;98107.75;;;29.49;33.36
3812;BME280;1921;49.368;11.068;2023-09-07T10:06:07;98147.13;;;27.44;36.94
3812;BME280;1921;49.368;11.068;2023-09-07T10:08:34;98084.81;;;28.22;34.98
3812;BME280;1921;49.368;11.068;2023-09-07T10:11:00;98111.25;;;29.02;34.55
3812;BME280;1921;49.368;11.068;2023-09-07T10:13:33;98107.72;;;30.49;30.50
3812;BME280;1921;49.368;11.068;2023-09-07T10:16:06;98094.44;;;31.95;28.29
3812;BME280;1921;49.368;11.068;2023-09-07T10:18:37;98106.38;;;30.65;29.45
3812;BME280;1921;49.368;11.068;2023-09-07T10:21:04;98067.69;;;30.28;30.87
3812;BME280;1921;49.368;11.068;2023-09-07T10:23:42;98095.84;;;30.17;30.98
3812;BME280;1921;49.368;11.068;2023-09-07T10:26:13;98081.66;;;29.50;30.62
3812;BME280;1921;49.368;11.068;2023-09-07T10:28:40;98080.81;;;28.54;31.83
3812;BME280;1921;49.368;11.068;2023-09-07T10:31:12;98074.66;;;29.06;32.72
3812;BME280;1921;49.368;11.068;2023-09-07T10:33:39;98058.94;;;31.10;30.11
3812;BME280;1921;49.368;11.068;2023-09-07T10:36:05;98006.25;;;31.82;27.46
3812;BME280;1921;49.368;11.068;2023-09-07T10:38:35;98069.13;;;33.12;26.70
3812;BME280;1921;49.368;11.068;2023-09-07T10:41:04;98074.13;;;32.96;27.39
3812;BME280;1921;49.368;11.068;2023-09-07T10:43:32;98010.22;;;32.07;27.26
3812;BME280;1921;49.368;11.068;2023-09-07T10:46:00;98102.19;;;32.33;28.84
3812;BME280;1921;49.368;11.068;2023-09-07T10:48:29;98069.41;;;32.79;27.03
3812;BME280;1921;49.368;11.068;2023-09-07T10:50:56;98049.47;;;33.37;26.96
3812;BME280;1921;49.368;11.068;2023-09-07T10:53:31;98063.13;;;33.24;26.71
3812;BME280;1921;49.368;11.068;2023-09-07T10:56:02;98087.09;;;33.82;26.41
3812;BME280;1921;49.368;11.068;2023-09-07T10:58:33;98040.47;;;34.11;26.38
3812;BME280;1921;49.368;11.068;2023-09-07T11:01:00;98061.00;;;34.04;26.29
3812;BME280;1921;49.368;11.068;2023-09-07T11:03:27;98049.34;;;33.60;26.12
3812;BME280;1921;49.368;11.068;2023-09-07T11:06:17;98048.63;;;32.26;27.84
3812;BME280;1921;49.368;11.068;2023-09-07T11:08:46;98078.16;;;32.99;26.88
3812;BME280;1921;49.368;11.068;2023-09-07T11:11:12;98065.63;;;33.20;27.15
3812;BME280;1921;49.368;11.068;2023-09-07T11:13:38;98034.91;;;31.28;29.53
3812;BME280;1921;49.368;11.068;2023-09-07T11:16:08;98052.81;;;29.37;32.05
3812;BME280;1921;49.368;11.068;2023-09-07T11:18:34;98082.50;;;29.03;33.36
3812;BME280;1921;49.368;11.068;2023-09-07T11:21:03;98041.78;;;31.20;29.96
3812;BME280;1921;49.368;11.068;2023-09-07T11:23:33;98054.03;;;32.49;28.39
3812;BME280;1921;49.368;11.068;2023-09-07T11:26:06;98039.31;;;32.94;27.33
3812;BME280;1921;49.368;11.068;2023-09-07T11:28:33;98042.19;;;33.55;26.93
3812;BME280;1921;49.368;11.068;2023-09-07T11:30:59;98033.44;;;34.19;25.64
3812;BME280;1921;49.368;11.068;2023-09-07T11:33:25;98035.16;;;33.37;26.95
3812;BME280;1921;49.368;11.068;2023-09-07T11:35:52;98055.28;;;32.74;27.89
3812;BME280;1921;49.368;11.068;2023-09-07T11:38:20;98032.88;;;33.21;27.38
3812;BME280;1921;49.368;11.068;2023-09-07T11:40:46;98039.47;;;33.72;26.69
3812;BME280;1921;49.368;11.068;2023-09-07T11:43:17;98063.06;;;33.89;26.29
3812;BME280;1921;49.368;11.068;2023-09-07T11:45:46;98037.84;;;34.58;24.66
3812;BME280;1921;49.368;11.068;2023-09-07T11:48:12;98056.81;;;35.34;24.46
3812;BME280;1921;49.368;11.068;2023-09-07T11:50:39;98048.78;;;34.79;24.04
3812;BME280;1921;49.368;11.068;2023-09-07T11:53:06;98078.47;;;34.67;24.74
3812;BME280;1921;49.368;11.068;2023-09-07T11:55:33;98057.31;;;34.98;24.22
3812;BME280;1921;49.368;11.068;2023-09-07T11:58:00;98038.44;;;32.46;27.03
3812;BME280;1921;49.368;11.068;2023-09-07T12:00:26;98042.47;;;32.57;27.21
3812;BME280;1921;49.368;11.068;2023-09-07T12:02:52;98077.13;;;32.55;26.13
3812;BME280;1921;49.368;11.068;2023-09-07T12:05:17;98059.38;;;33.59;26.25
3812;BME280;1921;49.368;11.068;2023-09-07T12:07:44;98044.75;;;34.04;24.43
3812;BME280;1921;49.368;11.068;2023-09-07T12:10:11;98020.41;;;34.04;25.13
3812;BME280;1921;49.368;11.068;2023-09-07T12:12:38;98020.47;;;33.12;26.31
3812;BME280;1921;49.368;11.068;2023-09-07T12:15:04;98020.75;;;33.02;26.11
3812;BME280;1921;49.368;11.068;2023-09-07T12:17:31;97990.22;;;33.10;26.18
3812;BME280;1921;49.368;11.068;2023-09-07T12:19:57;98046.34;;;33.04;26.10
3812;BME280;1921;49.368;11.068;2023-09-07T12:22:23;98026.84;;;33.25;26.08
3812;BME280;1921;49.368;11.068;2023-09-07T12:24:49;97980.31;;;31.58;26.90
3812;BME280;1921;49.368;11.068;2023-09-07T12:27:15;98061.88;;;32.90;26.55
3812;BME280;1921;49.368;11.068;2023-09-07T12:29:41;98040.34;;;32.76;27.43
3812;BME280;1921;49.368;11.068;2023-09-07T12:32:07;98006.91;;;32.10;27.80
3812;BME280;1921;49.368;11.068;2023-09-07T12:34:33;98006.25;;;32.98;27.09
3812;BME280;1921;49.368;11.068;2023-09-07T12:36:59;98025.19;;;33.81;26.46
3812;BME280;1921;49.368;11.068;2023-09-07T12:39:24;98014.03;;;34.72;25.83
3812;BME280;1921;49.368;11.068;2023-09-07T12:41:51;98016.16;;;33.11;27.01
3812;BME280;1921;49.368;11.068;2023-09-07T12:44:16;98003.56;;;32.58;27.77
3812;BME280;1921;49.368;11.068;2023-09-07T12:46:44;98021.09;;;32.69;27.84
3812;BME280;1921;49.368;11.068;2023-09-07T12:49:10;98019.63;;;33.86;26.21
3812;BME280;1921;49.368;11.068;2023-09-07T12:51:36;97969.22;;;32.50;26.90
3812;BME280;1921;49.368;11.068;2023-09-07T12:54:01;97986.16;;;30.55;29.90
3812;BME280;1921;49.368;11.068;2023-09-07T12:56:28;98010.09;;;30.11;30.21
3812;BME280;1921;49.368;11.068;2023-09-07T12:58:54;98016.66;;;29.48;31.86
3812;BME280;1921;49.368;11.068;2023-09-07T13:01:19;97919.78;;;29.58;30.21
3812;BME280;1921;49.368;11.068;2023-09-07T13:03:45;97976.94;;;31.30;28.16
3812;BME280;1921;49.368;11.068;2023-09-07T13:06:11;97996.09;;;32.63;26.01